createdAt,value
2018-09-12T00:00:46.191Z,56.19
2018-09-12T00:03:15.602Z,56.16
2018-09-12T00:05:44.064Z,55.99
2018-09-12T00:08:12.472Z,56.38
2018-09-12T00:10:40.839Z,56.17
2018-09-12T00:13:09.284Z,56.45
2018-09-12T00:15:37.699Z,56.17
2018-09-12T00:18:06.296Z,56.06
2018-09-12T00:20:34.675Z,56.25
2018-09-12T00:23:03.037Z,56.53
2018-09-12T00:25:31.417Z,56.79
2018-09-12T00:28:00.599Z,57.11
2018-09-12T00:30:28.916Z,56.85
2018-09-12T00:32:57.263Z,56.81
2018-09-12T00:35:25.706Z,56.70
2018-09-12T00:37:54.041Z,56.59
2018-09-12T00:40:22.410Z,56.96
2018-09-12T00:42:50.815Z,56.60
2018-09-12T00:45:19.164Z,56.68
2018-09-12T00:47:47.548Z,56.67
2018-09-12T00:50:15.959Z,56.54
2018-09-12T00:52:44.769Z,56.96
2018-09-12T00:55:13.075Z,56.86
2018-09-12T00:57:41.488Z,56.81
2018-09-12T01:00:09.860Z,56.56
2018-09-12T01:02:38.216Z,56.65
2018-09-12T03:19:21.252Z,57.63
2018-09-12T03:21:50.140Z,57.26
2018-09-12T03:24:18.538Z,57.60
2018-09-12T03:26:47.028Z,57.85
2018-09-12T03:29:15.366Z,57.81
2018-09-12T03:31:43.737Z,57.72
2018-09-12T03:34:12.108Z,57.71
2018-09-12T03:36:40.496Z,57.28
2018-09-12T03:39:10.968Z,57.41
2018-09-12T03:41:39.900Z,57.10
2018-09-12T03:44:08.736Z,57.29
2018-09-12T03:46:37.061Z,57.11
2018-09-12T03:49:05.848Z,57.12
2018-09-12T03:51:34.452Z,57.62
2018-09-12T03:54:02.889Z,57.27
2018-09-12T03:56:31.253Z,57.55
2018-09-12T03:58:59.585Z,57.19
2018-09-12T04:01:28.080Z,57.53
2018-09-12T04:03:56.527Z,57.20
2018-09-12T04:06:24.868Z,57.64
2018-09-12T04:08:53.301Z,57.26
2018-09-12T04:11:21.877Z,57.36
2018-09-12T04:13:50.321Z,57.52
2018-09-12T04:16:18.751Z,57.48
2018-09-12T04:18:47.269Z,57.75
2018-09-12T04:21:15.589Z,57.40
2018-09-12T04:23:43.977Z,57.70
2018-09-12T04:26:12.557Z,57.57
2018-09-12T04:28:40.952Z,57.33
2018-09-12T04:31:09.385Z,57.78
2018-09-12T04:33:37.997Z,57.77
2018-09-12T04:36:06.332Z,57.65
2018-09-12T04:38:34.658Z,57.64
2018-09-12T04:41:03.240Z,57.74
2018-09-12T04:43:31.608Z,57.81
2018-09-12T04:45:59.948Z,57.59
2018-09-12T04:48:28.341Z,57.36
2018-09-12T04:50:56.653Z,57.47
2018-09-12T04:53:25.728Z,57.71
2018-09-12T04:55:54.156Z,57.76
2018-09-12T04:58:22.529Z,57.70
2018-09-12T05:00:51.471Z,57.64
2018-09-12T05:03:20.494Z,57.64
2018-09-12T05:05:48.825Z,57.91
2018-09-12T05:08:17.249Z,58.04
2018-09-12T05:10:45.819Z,58.11
2018-09-12T05:13:14.144Z,58.15
2018-09-12T05:15:42.568Z,58.01
2018-09-12T05:18:11.009Z,58.05
2018-09-12T05:20:39.436Z,58.07
2018-09-12T05:23:07.823Z,58.18
2018-09-12T05:25:36.205Z,58.12
2018-09-12T05:28:04.604Z,57.94
2018-09-12T05:30:32.967Z,58.43
2018-09-12T05:33:01.360Z,58.38
2018-09-12T05:35:29.712Z,58.22
2018-09-12T05:37:58.188Z,58.06
2018-09-12T05:40:26.572Z,58.33
2018-09-12T05:42:54.953Z,58.43
2018-09-12T05:45:23.268Z,58.14
2018-09-12T05:47:51.711Z,58.48
2018-09-12T05:50:20.101Z,58.32
2018-09-12T05:52:48.743Z,58.11
2018-09-12T05:55:17.406Z,58.25
2018-09-12T05:57:45.937Z,58.42
2018-09-12T06:00:14.454Z,58.02
2018-09-12T06:02:42.870Z,58.06
2018-09-12T06:05:11.296Z,57.71
2018-09-12T06:07:39.656Z,58.10
2018-09-12T06:10:08.235Z,57.77
2018-09-12T06:12:36.664Z,57.38
2018-09-12T06:15:05.272Z,57.44
2018-09-12T06:17:33.880Z,57.08
2018-09-12T06:20:02.281Z,56.88
2018-09-12T06:22:30.921Z,56.74
2018-09-12T06:24:59.578Z,56.56
2018-09-12T06:27:28.050Z,56.44
2018-09-12T06:29:56.499Z,56.26
2018-09-12T06:32:25.153Z,56.34
2018-09-12T06:34:53.544Z,56.22
2018-09-12T06:37:21.960Z,56.04
2018-09-12T06:39:50.413Z,56.14
2018-09-12T06:42:18.803Z,56.11
2018-09-12T06:44:47.257Z,56.04
2018-09-12T06:47:15.858Z,55.45
2018-09-12T06:49:47.224Z,55.42
2018-09-12T06:52:17.241Z,55.23
2018-09-12T06:54:45.650Z,55.37
2018-09-12T06:57:14.165Z,54.91
2018-09-12T06:59:42.835Z,55.12
2018-09-12T07:02:11.260Z,54.94
2018-09-12T07:04:39.644Z,55.18
2018-09-12T07:07:08.212Z,54.53
2018-09-12T07:09:36.607Z,54.21
2018-09-12T07:12:05.606Z,54.13
2018-09-12T07:14:34.017Z,53.98
2018-09-12T07:17:02.396Z,53.90
2018-09-12T07:19:30.921Z,53.63
2018-09-12T07:21:59.718Z,53.86
2018-09-12T07:24:28.120Z,53.89
2018-09-12T07:26:56.492Z,53.62
2018-09-12T07:29:25.130Z,52.75
2018-09-12T07:31:53.485Z,52.73
2018-09-12T07:34:22.106Z,52.98
2018-09-12T07:36:50.588Z,52.62
2018-09-12T07:39:18.999Z,52.30
2018-09-12T07:41:47.412Z,52.69
2018-09-12T07:44:16.037Z,52.56
2018-09-12T07:46:44.373Z,52.45
2018-09-12T07:49:12.715Z,52.03
2018-09-12T07:51:41.233Z,51.78
2018-09-12T07:54:09.681Z,51.51
2018-09-12T07:56:38.043Z,51.71
2018-09-12T07:59:06.625Z,51.57
2018-09-12T08:01:35.011Z,51.08
2018-09-12T08:04:03.395Z,51.66
2018-09-12T08:06:31.967Z,51.15
2018-09-12T08:09:00.398Z,51.48
2018-09-12T08:11:28.835Z,51.42
2018-09-12T08:13:57.251Z,50.95
2018-09-12T08:16:25.579Z,50.88
2018-09-12T08:18:54.010Z,51.14
2018-09-12T08:21:22.454Z,50.89
2018-09-12T08:23:50.772Z,50.60
2018-09-12T08:26:19.237Z,50.97
2018-09-12T08:28:48.368Z,50.56
2018-09-12T08:31:16.695Z,50.07
2018-09-12T08:33:45.275Z,50.04
2018-09-12T08:36:13.853Z,49.84
2018-09-12T08:38:42.311Z,49.56
2018-09-12T08:41:10.711Z,49.58
2018-09-12T08:43:39.274Z,49.17
2018-09-12T08:46:07.867Z,48.81
2018-09-12T08:48:36.451Z,48.78
2018-09-12T08:51:05.008Z,49.11
2018-09-12T08:53:33.418Z,48.71
2018-09-12T08:56:01.748Z,48.89
2018-09-12T08:58:30.315Z,48.39
2018-09-12T09:00:58.649Z,48.65
2018-09-12T09:03:26.995Z,49.11
2018-09-12T09:05:56.786Z,49.38
2018-09-12T09:08:25.147Z,48.96
2018-09-12T09:10:53.508Z,48.92
2018-09-12T09:13:22.007Z,48.67
2018-09-12T09:15:50.457Z,48.96
2018-09-12T09:18:18.798Z,48.71
2018-09-12T09:20:47.239Z,48.72
2018-09-12T09:23:15.588Z,48.05
2018-09-12T09:25:43.973Z,47.89
2018-09-12T09:28:12.341Z,48.08
2018-09-12T09:30:40.680Z,47.62
2018-09-12T09:33:09.116Z,47.23
2018-09-12T09:35:37.695Z,48.14
2018-09-12T09:38:06.268Z,47.12
2018-09-12T09:40:34.604Z,46.53
2018-09-12T09:43:03.122Z,46.56
2018-09-12T09:45:31.448Z,46.92
2018-09-12T09:47:59.972Z,46.51
2018-09-12T09:50:28.464Z,46.23
2018-09-12T09:52:56.820Z,46.14
2018-09-12T09:55:25.156Z,45.11
2018-09-12T09:57:53.544Z,44.98
2018-09-12T10:00:27.228Z,44.31
2018-09-12T10:03:00.924Z,44.27
2018-09-12T10:05:34.673Z,45.01
2018-09-12T10:08:08.315Z,45.01
2018-09-12T10:10:36.659Z,44.39
2018-09-12T10:13:05.099Z,43.91
2018-09-12T10:15:33.648Z,42.84
2018-09-12T10:18:02.020Z,42.38
2018-09-12T10:20:30.659Z,42.35
2018-09-12T10:22:59.049Z,42.17
2018-09-12T10:25:27.545Z,42.54
2018-09-12T10:27:55.951Z,43.00
2018-09-12T10:30:24.369Z,42.21
2018-09-12T10:32:52.715Z,42.09
2018-09-12T10:35:21.071Z,41.84
2018-09-12T10:37:49.524Z,41.97
2018-09-12T10:40:17.947Z,41.38
2018-09-12T10:42:46.280Z,42.38
2018-09-12T10:45:14.788Z,42.13
2018-09-12T10:47:43.259Z,41.65
2018-09-12T10:50:11.663Z,42.07
2018-09-12T10:52:40.143Z,42.44
2018-09-12T10:55:08.613Z,42.07
2018-09-12T10:57:37.071Z,41.05
2018-09-12T11:00:07.322Z,41.20
2018-09-12T11:02:35.723Z,40.43
2018-09-12T11:05:04.135Z,40.18
2018-09-12T11:07:32.763Z,41.19
2018-09-12T11:10:01.128Z,40.15
2018-09-12T11:12:29.527Z,40.02
2018-09-12T11:14:57.899Z,39.94
2018-09-12T11:17:26.300Z,39.45
2018-09-12T11:19:54.767Z,39.01
2018-09-12T11:22:24.435Z,38.64
2018-09-12T11:24:52.798Z,38.93
2018-09-12T11:27:21.404Z,38.88
2018-09-12T11:29:49.813Z,39.50
2018-09-12T11:32:18.196Z,38.58
2018-09-12T11:34:46.567Z,38.68
2018-09-12T11:37:14.947Z,38.34
2018-09-12T11:39:43.327Z,38.54
2018-09-12T11:42:12.023Z,38.24
2018-09-12T11:44:40.383Z,38.64
2018-09-12T11:47:08.792Z,38.75
2018-09-12T11:49:37.271Z,38.32
2018-09-12T11:52:05.675Z,38.77
2018-09-12T11:54:34.212Z,38.17
2018-09-12T11:57:02.557Z,38.78
2018-09-12T11:59:30.996Z,38.10
2018-09-12T12:01:59.456Z,38.83
2018-09-12T12:04:27.932Z,37.76
2018-09-12T12:06:56.339Z,37.41
2018-09-12T12:09:24.683Z,37.28
2018-09-12T12:11:53.167Z,36.45
2018-09-12T12:14:21.692Z,36.18
2018-09-12T12:16:50.153Z,35.95
2018-09-12T12:19:18.516Z,36.46
2018-09-12T12:21:46.909Z,36.81
2018-09-12T12:24:15.264Z,37.15
2018-09-12T12:26:43.664Z,36.85
2018-09-12T12:29:12.228Z,37.27
2018-09-12T12:31:40.613Z,37.49
2018-09-12T12:34:08.964Z,37.62
2018-09-12T12:36:37.471Z,38.10
2018-09-12T12:39:08.650Z,37.51
2018-09-12T12:41:37.107Z,37.08
2018-09-12T12:44:05.549Z,37.36
2018-09-12T12:46:33.954Z,37.17
2018-09-12T12:49:02.397Z,37.10
2018-09-12T12:51:30.968Z,36.63
2018-09-12T12:53:59.387Z,36.78
2018-09-12T12:56:27.768Z,35.89
2018-09-12T12:58:56.149Z,36.17
2018-09-12T13:01:24.567Z,36.39
2018-09-12T13:03:52.908Z,36.94
2018-09-12T13:06:21.252Z,36.34
2018-09-12T13:08:49.668Z,35.96
2018-09-12T13:11:19.373Z,35.48
2018-09-12T13:13:47.908Z,35.86
2018-09-12T13:16:16.272Z,36.05
2018-09-12T13:18:48.988Z,34.32
2018-09-12T13:21:17.503Z,34.09
2018-09-12T13:23:45.943Z,35.11
2018-09-12T13:26:14.293Z,35.85
2018-09-12T13:28:42.773Z,35.02
2018-09-12T13:31:11.215Z,34.60
2018-09-12T13:33:42.265Z,34.88
2018-09-12T13:36:11.183Z,34.81
2018-09-12T13:38:39.528Z,34.52
2018-09-12T13:41:08.928Z,33.39
2018-09-12T13:43:38.325Z,32.91
2018-09-12T13:46:06.920Z,32.84
2018-09-12T13:48:35.292Z,32.53
2018-09-12T13:51:03.715Z,32.25
2018-09-12T13:53:32.148Z,32.63
2018-09-12T13:56:00.500Z,33.42
2018-09-12T13:58:40.847Z,32.83
2018-09-12T14:01:09.219Z,32.88
2018-09-12T14:03:37.627Z,33.79
2018-09-12T14:06:05.996Z,32.54
2018-09-12T14:08:34.318Z,32.90
2018-09-12T14:11:02.688Z,33.04
2018-09-12T14:13:31.073Z,32.75
2018-09-12T14:16:03.248Z,33.25
2018-09-12T14:18:31.862Z,32.95
2018-09-12T14:21:00.220Z,32.38
2018-09-12T14:23:28.663Z,32.16
2018-09-12T14:25:57.047Z,31.35
2018-09-12T14:28:25.391Z,31.58
2018-09-12T14:30:53.863Z,32.25
2018-09-12T14:33:22.271Z,31.52
2018-09-12T14:35:51.126Z,31.41
2018-09-12T14:38:21.237Z,31.63
2018-09-12T14:40:49.859Z,31.95
2018-09-12T14:43:18.244Z,32.48
2018-09-12T14:45:46.597Z,32.63
2018-09-12T14:48:15.204Z,33.18
2018-09-12T14:50:43.625Z,33.21
2018-09-12T14:53:12.876Z,32.96
2018-09-12T14:55:41.578Z,32.64
2018-09-12T14:58:10.696Z,32.23
2018-09-12T15:00:39.428Z,31.28
2018-09-12T15:03:07.868Z,30.97
2018-09-12T15:05:36.332Z,31.19
2018-09-12T15:08:05.260Z,30.39
2018-09-12T15:10:33.960Z,30.15
2018-09-12T15:13:02.283Z,30.22
2018-09-12T15:15:30.611Z,30.22
2018-09-12T15:17:59.345Z,31.03
2018-09-12T15:20:27.720Z,30.94
2018-09-12T15:22:56.107Z,30.43
2018-09-12T15:25:25.935Z,30.43
2018-09-12T15:27:54.297Z,30.56
2018-09-12T15:30:22.651Z,30.61
2018-09-12T15:32:51.067Z,30.33
2018-09-12T15:35:19.397Z,30.72
2018-09-12T15:37:47.728Z,30.80
2018-09-12T15:40:16.231Z,30.76
2018-09-12T15:42:44.551Z,30.28
2018-09-12T15:45:14.285Z,30.27
2018-09-12T15:47:43.219Z,31.58
2018-09-12T15:50:11.559Z,31.02
2018-09-12T15:52:39.989Z,31.24
2018-09-12T15:55:08.368Z,30.51
2018-09-12T15:57:37.905Z,30.82
2018-09-12T16:00:07.293Z,31.45
2018-09-12T16:02:35.671Z,31.15
2018-09-12T16:05:05.405Z,30.64
2018-09-12T16:07:33.765Z,31.07
2018-09-12T16:10:02.185Z,31.42
2018-09-12T16:12:31.797Z,31.87
2018-09-12T16:15:00.148Z,31.74
2018-09-12T16:17:28.616Z,32.19
2018-09-12T16:19:57.408Z,31.74
2018-09-12T16:22:25.752Z,31.65
2018-09-12T16:24:54.220Z,32.26
2018-09-12T16:27:23.495Z,32.82
2018-09-12T16:29:51.995Z,32.98
2018-09-12T16:32:20.348Z,33.65
2018-09-12T16:34:48.688Z,33.96
2018-09-12T16:37:17.052Z,34.22
2018-09-12T16:39:46.436Z,34.71
2018-09-12T16:42:14.764Z,34.81
2018-09-12T16:44:43.448Z,34.99
2018-09-12T16:47:11.822Z,34.86
2018-09-12T16:49:40.155Z,35.06
2018-09-12T16:52:08.480Z,35.09
2018-09-12T16:54:36.944Z,35.47
2018-09-12T16:57:05.298Z,35.14
2018-09-12T16:59:33.636Z,35.35
2018-09-12T17:02:02.028Z,35.73
2018-09-12T17:04:30.480Z,35.84
2018-09-12T17:06:58.883Z,36.32
2018-09-12T17:09:27.345Z,36.10
2018-09-12T17:11:55.687Z,36.19
2018-09-12T17:14:24.046Z,36.27
2018-09-12T17:16:52.539Z,38.04
2018-09-12T17:19:20.868Z,38.82
2018-09-12T17:21:49.557Z,39.01
2018-09-12T17:24:18.655Z,40.31
2018-09-12T17:26:46.981Z,40.63
2018-09-12T17:29:15.314Z,41.21
2018-09-12T17:31:44.408Z,40.91
2018-09-12T17:34:12.744Z,41.69
2018-09-12T17:36:41.082Z,42.33
2018-09-12T17:39:10.516Z,42.00
2018-09-12T17:41:39.068Z,42.54
2018-09-12T17:44:07.664Z,42.63
2018-09-12T17:46:36.032Z,42.99
2018-09-12T17:49:04.705Z,43.53
2018-09-12T17:51:33.140Z,44.23
2018-09-12T17:54:01.708Z,45.08
2018-09-12T17:56:30.145Z,45.58
2018-09-12T17:58:58.592Z,45.91
2018-09-12T18:01:27.119Z,45.58
2018-09-12T18:03:55.571Z,45.78
2018-09-12T18:06:24.026Z,46.61
2018-09-12T18:08:52.932Z,46.87
2018-09-12T18:11:21.450Z,47.24
2018-09-12T18:13:49.769Z,47.77
2018-09-12T18:16:18.348Z,48.10
2018-09-12T18:18:46.738Z,47.78
2018-09-12T18:21:15.109Z,48.38
2018-09-12T18:23:43.564Z,49.25
2018-09-12T18:26:11.984Z,49.11
2018-09-12T18:28:40.524Z,48.71
2018-09-12T18:31:08.939Z,49.37
2018-09-12T18:33:37.317Z,50.15
2018-09-12T18:36:05.761Z,50.21
2018-09-12T18:38:34.317Z,50.22
2018-09-12T18:41:02.771Z,50.76
2018-09-12T18:43:31.128Z,50.90
2018-09-12T18:45:59.548Z,51.02
2018-09-12T18:48:28.064Z,51.07
2018-09-12T18:50:56.476Z,51.31
2018-09-12T18:53:24.907Z,50.91
2018-09-12T18:55:53.329Z,51.09
2018-09-12T18:58:21.821Z,51.42
2018-09-12T19:00:50.196Z,50.45
2018-09-12T19:03:18.569Z,49.27
2018-09-12T19:05:46.914Z,49.22
2018-09-12T19:08:15.284Z,48.85
2018-09-12T19:10:44.240Z,48.64
2018-09-12T19:13:12.709Z,48.96
2018-09-12T19:15:41.091Z,49.55
2018-09-12T19:18:09.653Z,50.46
2018-09-12T19:20:38.065Z,51.62
2018-09-12T19:23:06.440Z,52.52
2018-09-12T19:25:34.796Z,52.70
2018-09-12T19:28:03.255Z,52.83
2018-09-12T19:30:31.615Z,52.34
2018-09-12T19:32:59.988Z,52.25
2018-09-12T19:35:28.363Z,52.95
2018-09-12T19:37:56.757Z,53.03
2018-09-12T19:40:25.119Z,53.15
2018-09-12T19:42:53.468Z,53.89
2018-09-12T19:45:21.841Z,53.57
2018-09-12T19:47:50.189Z,53.85
2018-09-12T19:50:18.613Z,54.32
2018-09-12T19:52:47.099Z,54.27
2018-09-12T19:55:15.525Z,53.13
2018-09-12T19:57:43.928Z,51.32
2018-09-12T20:00:14.898Z,50.64
2018-09-12T20:02:44.273Z,50.84
2018-09-12T20:05:12.794Z,50.52
2018-09-12T20:07:41.246Z,50.47
2018-09-12T20:10:09.777Z,50.62
2018-09-12T20:12:38.312Z,51.00
2018-09-12T20:15:06.860Z,50.93
2018-09-12T20:17:35.307Z,50.93
2018-09-12T20:20:03.739Z,50.34
2018-09-12T20:22:32.235Z,50.27
2018-09-12T20:25:00.593Z,50.12
2018-09-12T20:27:28.975Z,49.89
2018-09-12T20:29:57.446Z,50.48
2018-09-12T20:32:25.857Z,50.36
2018-09-12T20:34:54.204Z,50.44
2018-09-12T20:37:22.620Z,50.32
2018-09-12T20:39:51.036Z,50.46
2018-09-12T20:42:19.386Z,50.53
2018-09-12T20:44:47.860Z,50.21
2018-09-12T20:47:16.284Z,50.34
2018-09-12T20:49:44.639Z,50.52
2018-09-12T20:52:13.143Z,51.11
2018-09-12T20:54:41.503Z,50.97
2018-09-12T20:57:09.875Z,51.32
2018-09-12T20:59:38.426Z,51.40
2018-09-12T21:02:07.198Z,51.51
2018-09-12T21:04:35.564Z,51.27
2018-09-12T21:07:04.405Z,51.04
2018-09-12T21:09:32.818Z,51.68
2018-09-12T21:12:01.212Z,51.78
2018-09-12T21:14:30.011Z,52.26
2018-09-12T21:16:58.443Z,52.59
2018-09-12T21:19:26.785Z,52.62
2018-09-12T21:21:55.199Z,52.79
2018-09-12T21:24:24.260Z,53.40
2018-09-12T21:26:52.594Z,53.59
2018-09-12T21:29:21.024Z,54.09
2018-09-12T21:31:49.460Z,54.21
2018-09-12T21:34:17.832Z,54.38
2018-09-12T21:36:46.521Z,54.87
2018-09-12T21:39:14.924Z,54.81
2018-09-12T21:41:43.300Z,55.25
2018-09-12T21:44:11.711Z,54.98
2018-09-12T21:46:40.166Z,55.03
2018-09-12T21:49:08.513Z,55.21
2018-09-12T21:51:38.009Z,55.47
2018-09-12T21:54:06.499Z,55.83
2018-09-12T21:56:35.388Z,55.93
2018-09-12T21:59:03.880Z,55.75
2018-09-12T22:01:32.264Z,55.79
2018-09-12T22:04:00.626Z,55.52
2018-09-12T22:06:29.072Z,55.84
2018-09-12T22:08:57.424Z,55.52
2018-09-12T22:11:25.868Z,55.87
2018-09-12T22:13:54.492Z,55.90
2018-09-12T22:16:22.831Z,55.80
2018-09-12T22:18:51.212Z,55.90
2018-09-12T22:21:19.741Z,55.12
2018-09-12T22:23:48.263Z,54.59
2018-09-12T22:26:16.652Z,54.76
2018-09-12T22:28:45.222Z,54.63
2018-09-12T22:31:13.564Z,55.19
2018-09-12T22:33:41.881Z,54.73
2018-09-12T22:36:10.313Z,54.13
2018-09-12T22:38:38.637Z,54.33
2018-09-12T22:41:07.020Z,54.18
2018-09-12T22:43:35.447Z,54.29
2018-09-12T22:46:03.896Z,54.32
2018-09-12T22:48:32.398Z,54.09
2018-09-12T22:51:01.048Z,53.34
2018-09-12T22:53:29.528Z,53.56
2018-09-12T22:55:58.272Z,53.40
2018-09-12T22:58:26.756Z,53.72
2018-09-12T23:00:55.184Z,53.89
2018-09-12T23:03:23.567Z,54.09
2018-09-12T23:05:52.348Z,53.57
2018-09-12T23:08:20.716Z,53.96
2018-09-12T23:10:49.104Z,53.84
2018-09-12T23:13:17.519Z,53.53
2018-09-12T23:15:45.855Z,53.59
2018-09-12T23:18:14.328Z,53.86
2018-09-12T23:20:42.726Z,53.35
2018-09-12T23:23:11.085Z,53.67
2018-09-12T23:25:39.464Z,53.49
2018-09-12T23:28:07.864Z,53.81
2018-09-12T23:30:36.196Z,53.68
2018-09-12T23:33:04.614Z,53.41
2018-09-12T23:35:33.016Z,53.51
2018-09-12T23:38:01.364Z,54.12
2018-09-12T23:40:29.812Z,54.11
2018-09-12T23:42:58.376Z,54.17
2018-09-12T23:45:26.788Z,54.96
2018-09-12T23:47:55.194Z,55.21
2018-09-12T23:50:23.746Z,55.61
2018-09-12T23:52:52.142Z,55.78
2018-09-12T23:55:20.668Z,55.88
2018-09-12T23:57:49.308Z,55.85
